sensor_id;sensor_type;location;lat;lon;timestamp;temperature;humidity
22607;DHT22;11470;20.968;105.834;2023-04-25T00:01:12;25.90;99.90
22607;DHT22;11470;20.968;105.834;2023-04-25T00:06:18;25.90;99.90
22607;DHT22;11470;20.968;105.834;2023-04-25T00:11:25;25.80;99.90
22607;DHT22;11470;20.968;105.834;2023-04-25T00:16:29;25.80;99.90
22607;DHT22;11470;20.968;105.834;2023-04-25T00:21:38;25.90;99.90
22607;DHT22;11470;20.968;105.834;2023-04-25T00:26:45;25.70;99.90
22607;DHT22;11470;20.968;105.834;2023-04-25T00:31:50;25.70;99.90
22607;DHT22;11470;20.968;105.834;2023-04-25T00:36:56;25.20;99.90
22607;DHT22;11470;20.968;105.834;2023-04-25T00:42:03;24.80;99.90
22607;DHT22;11470;20.968;105.834;2023-04-25T00:47:08;24.60;99.90
22607;DHT22;11470;20.968;105.834;2023-04-25T00:52:16;24.50;99.90
22607;DHT22;11470;20.968;105.834;2023-04-25T00:57:23;24.10;99.90
22607;DHT22;11470;20.968;105.834;2023-04-25T01:02:30;23.60;99.90
22607;DHT22;11470;20.968;105.834;2023-04-25T01:07:37;23.10;99.90
22607;DHT22;11470;20.968;105.834;2023-04-25T01:12:43;22.50;99.90
22607;DHT22;11470;20.968;105.834;2023-04-25T01:17:49;23.00;99.90
22607;DHT22;11470;20.968;105.834;2023-04-25T01:22:55;22.60;99.90
22607;DHT22;11470;20.968;105.834;2023-04-25T01:28:01;22.20;99.90
22607;DHT22;11470;20.968;105.834;2023-04-25T01:33:09;21.80;99.90
22607;DHT22;11470;20.968;105.834;2023-04-25T01:38:14;21.80;99.90
22607;DHT22;11470;20.968;105.834;2023-04-25T01:43:20;21.60;99.90
22607;DHT22;11470;20.968;105.834;2023-04-25T01:48:26;21.30;99.90
22607;DHT22;11470;20.968;105.834;2023-04-25T01:53:32;21.00;99.90
22607;DHT22;11470;20.968;105.834;2023-04-25T01:58:45;20.70;99.90
22607;DHT22;11470;20.968;105.834;2023-04-25T02:03:55;21.30;99.90
22607;DHT22;11470;20.968;105.834;2023-04-25T02:09:08;21.30;99.90
22607;DHT22;11470;20.968;105.834;2023-04-25T02:14:23;21.80;99.90
22607;DHT22;11470;20.968;105.834;2023-04-25T02:19:40;22.20;99.90
22607;DHT22;11470;20.968;105.834;2023-04-25T02:24:46;22.20;99.90
22607;DHT22;11470;20.968;105.834;2023-04-25T02:29:58;22.40;99.90
22607;DHT22;11470;20.968;105.834;2023-04-25T02:35:06;22.70;99.90
22607;DHT22;11470;20.968;105.834;2023-04-25T02:40:16;22.50;99.90
22607;DHT22;11470;20.968;105.834;2023-04-25T02:45:22;22.60;99.90
22607;DHT22;11470;20.968;105.834;2023-04-25T02:50:28;22.90;99.90
22607;DHT22;11470;20.968;105.834;2023-04-25T02:55:35;22.90;99.90
22607;DHT22;11470;20.968;105.834;2023-04-25T03:00:40;22.80;99.90
22607;DHT22;11470;20.968;105.834;2023-04-25T03:05:52;22.50;99.90
22607;DHT22;11470;20.968;105.834;2023-04-25T03:11:01;22.30;99.90
22607;DHT22;11470;20.968;105.834;2023-04-25T03:16:07;22.30;99.90
22607;DHT22;11470;20.968;105.834;2023-04-25T03:21:13;22.50;99.90
22607;DHT22;11470;20.968;105.834;2023-04-25T03:26:19;22.60;99.90
22607;DHT22;11470;20.968;105.834;2023-04-25T03:31:25;22.40;99.90
22607;DHT22;11470;20.968;105.834;2023-04-25T03:42:36;22.20;99.90
22607;DHT22;11470;20.968;105.834;2023-04-25T03:47:42;21.80;99.90
22607;DHT22;11470;20.968;105.834;2023-04-25T03:52:47;21.70;99.90
22607;DHT22;11470;20.968;105.834;2023-04-25T03:57:54;22.10;99.90
22607;DHT22;11470;20.968;105.834;2023-04-25T04:03:00;21.70;99.90
22607;DHT22;11470;20.968;105.834;2023-04-25T04:08:06;21.70;99.90
22607;DHT22;11470;20.968;105.834;2023-04-25T04:13:14;21.40;99.90
22607;DHT22;11470;20.968;105.834;2023-04-25T04:18:28;20.90;99.90
22607;DHT22;11470;20.968;105.834;2023-04-25T04:23:33;21.50;99.90
22607;DHT22;11470;20.968;105.834;2023-04-25T04:28:43;21.20;99.90
22607;DHT22;11470;20.968;105.834;2023-04-25T04:34:01;21.30;99.90
22607;DHT22;11470;20.968;105.834;2023-04-25T04:39:06;21.50;99.90
22607;DHT22;11470;20.968;105.834;2023-04-25T04:44:25;21.80;99.90
22607;DHT22;11470;20.968;105.834;2023-04-25T04:49:51;21.90;99.90
22607;DHT22;11470;20.968;105.834;2023-04-25T04:55:19;22.00;99.90
22607;DHT22;11470;20.968;105.834;2023-04-25T05:00:45;22.30;99.90
22607;DHT22;11470;20.968;105.834;2023-04-25T05:06:24;22.40;99.90
22607;DHT22;11470;20.968;105.834;2023-04-25T05:11:47;22.60;99.90
22607;DHT22;11470;20.968;105.834;2023-04-25T05:17:02;22.70;99.90
22607;DHT22;11470;20.968;105.834;2023-04-25T05:22:26;22.90;99.90
22607;DHT22;11470;20.968;105.834;2023-04-25T05:27:45;23.40;99.90
22607;DHT22;11470;20.968;105.834;2023-04-25T05:33:11;23.50;99.90
22607;DHT22;11470;20.968;105.834;2023-04-25T05:38:18;23.10;99.90
22607;DHT22;11470;20.968;105.834;2023-04-25T05:43:43;23.30;99.90
22607;DHT22;11470;20.968;105.834;2023-04-25T05:49:06;23.40;99.90
22607;DHT22;11470;20.968;105.834;2023-04-25T05:54:31;23.70;99.90
22607;DHT22;11470;20.968;105.834;2023-04-25T05:59:40;23.60;99.90
22607;DHT22;11470;20.968;105.834;2023-04-25T06:04:46;23.50;99.90
22607;DHT22;11470;20.968;105.834;2023-04-25T06:09:51;23.40;99.90
22607;DHT22;11470;20.968;105.834;2023-04-25T06:14:58;23.10;99.90
22607;DHT22;11470;20.968;105.834;2023-04-25T06:20:06;23.00;99.90
22607;DHT22;11470;20.968;105.834;2023-04-25T06:25:15;23.10;99.90
22607;DHT22;11470;20.968;105.834;2023-04-25T06:30:22;23.10;99.90
22607;DHT22;11470;20.968;105.834;2023-04-25T06:35:36;22.90;99.90
22607;DHT22;11470;20.968;105.834;2023-04-25T06:40:45;23.00;99.90
22607;DHT22;11470;20.968;105.834;2023-04-25T06:45:53;23.10;99.90
22607;DHT22;11470;20.968;105.834;2023-04-25T06:51:02;23.20;99.90
22607;DHT22;11470;20.968;105.834;2023-04-25T06:56:09;23.10;99.90
22607;DHT22;11470;20.968;105.834;2023-04-25T07:01:33;22.80;99.90
22607;DHT22;11470;20.968;105.834;2023-04-25T07:06:45;23.70;99.90
22607;DHT22;11470;20.968;105.834;2023-04-25T07:11:57;23.70;99.90
22607;DHT22;11470;20.968;105.834;2023-04-25T07:17:04;23.30;99.90
22607;DHT22;11470;20.968;105.834;2023-04-25T07:22:11;23.30;99.90
22607;DHT22;11470;20.968;105.834;2023-04-25T07:27:18;22.80;99.90
22607;DHT22;11470;20.968;105.834;2023-04-25T07:32:40;22.70;99.90
22607;DHT22;11470;20.968;105.834;2023-04-25T07:37:46;22.30;99.90
22607;DHT22;11470;20.968;105.834;2023-04-25T07:42:54;22.00;99.90
22607;DHT22;11470;20.968;105.834;2023-04-25T07:48:38;21.90;99.90
22607;DHT22;11470;20.968;105.834;2023-04-25T07:53:44;21.80;99.90
22607;DHT22;11470;20.968;105.834;2023-04-25T07:59:27;22.10;99.90
22607;DHT22;11470;20.968;105.834;2023-04-25T08:04:38;22.40;99.90
22607;DHT22;11470;20.968;105.834;2023-04-25T08:09:47;22.30;99.90
22607;DHT22;11470;20.968;105.834;2023-04-25T08:14:59;22.20;99.90
22607;DHT22;11470;20.968;105.834;2023-04-25T08:20:10;22.30;99.90
22607;DHT22;11470;20.968;105.834;2023-04-25T08:25:17;22.30;99.90
22607;DHT22;11470;20.968;105.834;2023-04-25T08:30:26;22.20;99.90
22607;DHT22;11470;20.968;105.834;2023-04-25T08:35:31;22.40;99.90
22607;DHT22;11470;20.968;105.834;2023-04-25T08:40:43;22.40;99.90
22607;DHT22;11470;20.968;105.834;2023-04-25T08:45:53;21.70;99.90
22607;DHT22;11470;20.968;105.834;2023-04-25T08:51:10;21.40;99.90
22607;DHT22;11470;20.968;105.834;2023-04-25T08:56:23;21.40;99.90
22607;DHT22;11470;20.968;105.834;2023-04-25T09:01:31;21.30;99.90
22607;DHT22;11470;20.968;105.834;2023-04-25T09:06:38;21.20;99.90
22607;DHT22;11470;20.968;105.834;2023-04-25T09:11:43;21.30;99.90
22607;DHT22;11470;20.968;105.834;2023-04-25T09:17:03;21.20;99.90
22607;DHT22;11470;20.968;105.834;2023-04-25T09:22:24;21.40;99.90
22607;DHT22;11470;20.968;105.834;2023-04-25T09:27:30;21.50;99.90
22607;DHT22;11470;20.968;105.834;2023-04-25T09:32:57;21.50;99.90
22607;DHT22;11470;20.968;105.834;2023-04-25T09:38:12;21.40;99.90
22607;DHT22;11470;20.968;105.834;2023-04-25T09:43:39;21.40;99.90
22607;DHT22;11470;20.968;105.834;2023-04-25T09:48:50;21.50;99.90
22607;DHT22;11470;20.968;105.834;2023-04-25T09:54:06;21.80;99.90
22607;DHT22;11470;20.968;105.834;2023-04-25T09:59:16;21.50;99.90
22607;DHT22;11470;20.968;105.834;2023-04-25T10:04:28;21.30;99.90
22607;DHT22;11470;20.968;105.834;2023-04-25T10:09:43;21.70;99.90
22607;DHT22;11470;20.968;105.834;2023-04-25T10:14:51;21.90;99.90
22607;DHT22;11470;20.968;105.834;2023-04-25T10:19:57;21.90;99.90
22607;DHT22;11470;20.968;105.834;2023-04-25T10:25:05;21.70;99.90
22607;DHT22;11470;20.968;105.834;2023-04-25T10:30:16;21.40;99.90
22607;DHT22;11470;20.968;105.834;2023-04-25T10:35:30;21.40;99.90
22607;DHT22;11470;20.968;105.834;2023-04-25T10:40:36;21.40;99.90
22607;DHT22;11470;20.968;105.834;2023-04-25T10:45:52;21.70;99.90
22607;DHT22;11470;20.968;105.834;2023-04-25T10:51:25;21.70;99.90
22607;DHT22;11470;20.968;105.834;2023-04-25T10:56:43;22.10;99.90
22607;DHT22;11470;20.968;105.834;2023-04-25T11:01:52;21.90;99.90
22607;DHT22;11470;20.968;105.834;2023-04-25T11:07:13;22.40;99.90
22607;DHT22;11470;20.968;105.834;2023-04-25T11:12:27;22.10;99.90
22607;DHT22;11470;20.968;105.834;2023-04-25T11:23:20;21.70;99.90
22607;DHT22;11470;20.968;105.834;2023-04-25T11:28:25;21.70;99.90
22607;DHT22;11470;20.968;105.834;2023-04-25T11:33:32;21.60;99.90
22607;DHT22;11470;20.968;105.834;2023-04-25T11:38:41;21.60;99.90
22607;DHT22;11470;20.968;105.834;2023-04-25T11:43:49;21.60;99.90
22607;DHT22;11470;20.968;105.834;2023-04-25T11:49:00;21.60;99.90
22607;DHT22;11470;20.968;105.834;2023-04-25T11:54:06;21.70;99.90
22607;DHT22;11470;20.968;105.834;2023-04-25T12:06:17;22.00;99.90
22607;DHT22;11470;20.968;105.834;2023-04-25T12:11:23;21.80;99.90
22607;DHT22;11470;20.968;105.834;2023-04-25T12:16:29;21.80;99.90
22607;DHT22;11470;20.968;105.834;2023-04-25T12:21:41;21.80;99.90
22607;DHT22;11470;20.968;105.834;2023-04-25T12:27:06;21.80;99.90
22607;DHT22;11470;20.968;105.834;2023-04-25T12:32:12;21.80;99.90
22607;DHT22;11470;20.968;105.834;2023-04-25T12:37:18;21.80;99.90
22607;DHT22;11470;20.968;105.834;2023-04-25T12:48:02;22.10;99.90
22607;DHT22;11470;20.968;105.834;2023-04-25T12:53:09;22.00;99.90
22607;DHT22;11470;20.968;105.834;2023-04-25T12:58:24;22.10;99.90
22607;DHT22;11470;20.968;105.834;2023-04-25T13:03:31;22.00;99.90
22607;DHT22;11470;20.968;105.834;2023-04-25T13:08:37;22.10;99.90
22607;DHT22;11470;20.968;105.834;2023-04-25T13:13:44;22.00;99.90
22607;DHT22;11470;20.968;105.834;2023-04-25T13:18:49;21.90;99.90
22607;DHT22;11470;20.968;105.834;2023-04-25T13:23:57;22.00;99.90
22607;DHT22;11470;20.968;105.834;2023-04-25T13:29:15;22.20;99.90
22607;DHT22;11470;20.968;105.834;2023-04-25T13:34:26;22.20;99.90
22607;DHT22;11470;20.968;105.834;2023-04-25T13:39:36;22.40;99.90
22607;DHT22;11470;20.968;105.834;2023-04-25T13:44:45;22.60;99.90
22607;DHT22;11470;20.968;105.834;2023-04-25T13:49:50;22.40;99.90
22607;DHT22;11470;20.968;105.834;2023-04-25T13:54:58;22.20;99.90
22607;DHT22;11470;20.968;105.834;2023-04-25T14:00:09;22.30;99.90
22607;DHT22;11470;20.968;105.834;2023-04-25T14:05:16;22.50;99.90
22607;DHT22;11470;20.968;105.834;2023-04-25T14:11:06;22.40;99.90
22607;DHT22;11470;20.968;105.834;2023-04-25T14:16:12;22.30;99.90
22607;DHT22;11470;20.968;105.834;2023-04-25T14:21:18;22.30;99.90
22607;DHT22;11470;20.968;105.834;2023-04-25T14:26:25;22.30;99.90
22607;DHT22;11470;20.968;105.834;2023-04-25T14:31:32;22.40;99.90
22607;DHT22;11470;20.968;105.834;2023-04-25T14:36:40;22.30;99.90
22607;DHT22;11470;20.968;105.834;2023-04-25T14:41:46;22.40;99.90
22607;DHT22;11470;20.968;105.834;2023-04-25T14:46:51;22.30;99.90
22607;DHT22;11470;20.968;105.834;2023-04-25T14:52:03;22.30;99.90
22607;DHT22;11470;20.968;105.834;2023-04-25T14:57:08;22.30;99.90
22607;DHT22;11470;20.968;105.834;2023-04-25T15:02:27;22.40;99.90
22607;DHT22;11470;20.968;105.834;2023-04-25T15:07:33;22.30;99.90
22607;DHT22;11470;20.968;105.834;2023-04-25T15:13:25;22.30;99.90
22607;DHT22;11470;20.968;105.834;2023-04-25T15:18:36;22.20;99.90
22607;DHT22;11470;20.968;105.834;2023-04-25T15:29:18;22.00;99.90
22607;DHT22;11470;20.968;105.834;2023-04-25T15:34:44;22.20;99.90
22607;DHT22;11470;20.968;105.834;2023-04-25T15:40:11;22.40;99.90
22607;DHT22;11470;20.968;105.834;2023-04-25T15:45:19;22.30;99.90
22607;DHT22;11470;20.968;105.834;2023-04-25T15:50:25;22.10;99.90
22607;DHT22;11470;20.968;105.834;2023-04-25T15:55:31;22.10;99.90
22607;DHT22;11470;20.968;105.834;2023-04-25T16:00:42;22.10;99.90
22607;DHT22;11470;20.968;105.834;2023-04-25T16:05:48;22.00;99.90
22607;DHT22;11470;20.968;105.834;2023-04-25T16:17:24;22.10;99.90
22607;DHT22;11470;20.968;105.834;2023-04-25T16:22:29;22.00;99.90
22607;DHT22;11470;20.968;105.834;2023-04-25T16:27:40;22.10;99.90
22607;DHT22;11470;20.968;105.834;2023-04-25T16:32:45;22.10;99.90
22607;DHT22;11470;20.968;105.834;2023-04-25T16:37:52;22.00;99.90
22607;DHT22;11470;20.968;105.834;2023-04-25T16:42:57;22.00;99.90
22607;DHT22;11470;20.968;105.834;2023-04-25T16:48:04;21.90;99.90
22607;DHT22;11470;20.968;105.834;2023-04-25T16:53:09;21.90;99.90
22607;DHT22;11470;20.968;105.834;2023-04-25T16:58:15;22.10;99.90
22607;DHT22;11470;20.968;105.834;2023-04-25T17:03:20;22.00;99.90
22607;DHT22;11470;20.968;105.834;2023-04-25T17:08:27;21.90;99.90
22607;DHT22;11470;20.968;105.834;2023-04-25T17:13:33;22.00;99.90
22607;DHT22;11470;20.968;105.834;2023-04-25T17:18:39;21.90;99.90
22607;DHT22;11470;20.968;105.834;2023-04-25T17:23:51;21.90;99.90
22607;DHT22;11470;20.968;105.834;2023-04-25T17:28:57;21.90;99.90
22607;DHT22;11470;20.968;105.834;2023-04-25T17:34:02;22.00;99.90
22607;DHT22;11470;20.968;105.834;2023-04-25T17:39:08;22.00;99.90
22607;DHT22;11470;20.968;105.834;2023-04-25T17:44:25;22.00;99.90
22607;DHT22;11470;20.968;105.834;2023-04-25T17:49:49;21.90;99.90
22607;DHT22;11470;20.968;105.834;2023-04-25T17:54:58;21.50;99.90
22607;DHT22;11470;20.968;105.834;2023-04-25T18:00:04;21.00;99.90
22607;DHT22;11470;20.968;105.834;2023-04-25T18:05:14;20.70;99.90
22607;DHT22;11470;20.968;105.834;2023-04-25T18:10:20;20.70;99.90
22607;DHT22;11470;20.968;105.834;2023-04-25T18:15:25;21.00;99.90
22607;DHT22;11470;20.968;105.834;2023-04-25T18:20:32;21.40;99.90
22607;DHT22;11470;20.968;105.834;2023-04-25T18:25:37;21.70;99.90
22607;DHT22;11470;20.968;105.834;2023-04-25T18:30:42;21.70;99.90
22607;DHT22;11470;20.968;105.834;2023-04-25T18:36:00;21.70;99.90
22607;DHT22;11470;20.968;105.834;2023-04-25T18:41:06;21.70;99.90
22607;DHT22;11470;20.968;105.834;2023-04-25T18:46:32;21.70;99.90
22607;DHT22;11470;20.968;105.834;2023-04-25T18:51:37;21.70;99.90
22607;DHT22;11470;20.968;105.834;2023-04-25T18:56:43;21.70;99.90
22607;DHT22;11470;20.968;105.834;2023-04-25T19:01:49;21.80;99.90
22607;DHT22;11470;20.968;105.834;2023-04-25T19:06:57;21.70;99.90
22607;DHT22;11470;20.968;105.834;2023-04-25T19:12:03;21.70;99.90
22607;DHT22;11470;20.968;105.834;2023-04-25T19:17:09;21.70;99.90
22607;DHT22;11470;20.968;105.834;2023-04-25T19:22:15;21.80;99.90
22607;DHT22;11470;20.968;105.834;2023-04-25T19:27:21;21.80;99.90
22607;DHT22;11470;20.968;105.834;2023-04-25T19:32:26;21.80;99.90
22607;DHT22;11470;20.968;105.834;2023-04-25T19:37:32;21.80;99.90
22607;DHT22;11470;20.968;105.834;2023-04-25T19:42:37;21.90;99.90
22607;DHT22;11470;20.968;105.834;2023-04-25T19:47:42;22.00;99.90
22607;DHT22;11470;20.968;105.834;2023-04-25T19:52:48;22.00;99.90
22607;DHT22;11470;20.968;105.834;2023-04-25T19:58:00;21.80;99.90
22607;DHT22;11470;20.968;105.834;2023-04-25T20:03:06;21.70;99.90
22607;DHT22;11470;20.968;105.834;2023-04-25T20:08:14;21.70;99.90
22607;DHT22;11470;20.968;105.834;2023-04-25T20:13:20;21.60;99.90
22607;DHT22;11470;20.968;105.834;2023-04-25T20:18:27;21.70;99.90
22607;DHT22;11470;20.968;105.834;2023-04-25T20:23:33;21.60;99.90
22607;DHT22;11470;20.968;105.834;2023-04-25T20:28:39;21.60;99.90
22607;DHT22;11470;20.968;105.834;2023-04-25T20:33:46;21.70;99.90
22607;DHT22;11470;20.968;105.834;2023-04-25T20:38:51;21.70;99.90
22607;DHT22;11470;20.968;105.834;2023-04-25T20:43:57;21.60;99.90
22607;DHT22;11470;20.968;105.834;2023-04-25T20:49:04;21.60;99.90
22607;DHT22;11470;20.968;105.834;2023-04-25T20:54:10;21.70;99.90
22607;DHT22;11470;20.968;105.834;2023-04-25T20:59:16;21.80;99.90
22607;DHT22;11470;20.968;105.834;2023-04-25T21:04:22;22.00;99.90
22607;DHT22;11470;20.968;105.834;2023-04-25T21:09:28;22.00;99.90
22607;DHT22;11470;20.968;105.834;2023-04-25T21:14:34;21.90;99.90
22607;DHT22;11470;20.968;105.834;2023-04-25T21:19:40;21.80;99.90
22607;DHT22;11470;20.968;105.834;2023-04-25T21:24:46;21.80;99.90
22607;DHT22;11470;20.968;105.834;2023-04-25T21:29:54;21.80;99.90
22607;DHT22;11470;20.968;105.834;2023-04-25T21:34:59;21.80;99.90
22607;DHT22;11470;20.968;105.834;2023-04-25T21:40:06;21.80;99.90
22607;DHT22;11470;20.968;105.834;2023-04-25T21:45:12;22.00;99.90
22607;DHT22;11470;20.968;105.834;2023-04-25T21:50:18;21.90;99.90
22607;DHT22;11470;20.968;105.834;2023-04-25T21:55:24;21.90;99.90
22607;DHT22;11470;20.968;105.834;2023-04-25T22:00:31;21.90;99.90
22607;DHT22;11470;20.968;105.834;2023-04-25T22:05:38;21.80;99.90
22607;DHT22;11470;20.968;105.834;2023-04-25T22:10:44;21.80;99.90
22607;DHT22;11470;20.968;105.834;2023-04-25T22:15:50;21.80;99.90
22607;DHT22;11470;20.968;105.834;2023-04-25T22:20:55;21.80;99.90
22607;DHT22;11470;20.968;105.834;2023-04-25T22:26:01;21.90;99.90
22607;DHT22;11470;20.968;105.834;2023-04-25T22:31:06;22.00;99.90
22607;DHT22;11470;20.968;105.834;2023-04-25T22:36:12;21.90;99.90
22607;DHT22;11470;20.968;105.834;2023-04-25T22:41:18;21.90;99.90
22607;DHT22;11470;20.968;105.834;2023-04-25T22:46:24;21.80;99.90
22607;DHT22;11470;20.968;105.834;2023-04-25T22:51:30;21.80;99.90
22607;DHT22;11470;20.968;105.834;2023-04-25T22:56:36;21.90;99.90
22607;DHT22;11470;20.968;105.834;2023-04-25T23:01:41;22.00;99.90
22607;DHT22;11470;20.968;105.834;2023-04-25T23:06:47;21.90;99.90
22607;DHT22;11470;20.968;105.834;2023-04-25T23:11:53;22.00;99.90
22607;DHT22;11470;20.968;105.834;2023-04-25T23:17:00;22.00;99.90
22607;DHT22;11470;20.968;105.834;2023-04-25T23:22:05;22.00;99.90
22607;DHT22;11470;20.968;105.834;2023-04-25T23:27:11;22.00;99.90
22607;DHT22;11470;20.968;105.834;2023-04-25T23:32:17;22.00;99.90
22607;DHT22;11470;20.968;105.834;2023-04-25T23:37:22;22.10;99.90
22607;DHT22;11470;20.968;105.834;2023-04-25T23:42:28;22.10;99.90
22607;DHT22;11470;20.968;105.834;2023-04-25T23:47:34;22.00;99.90
22607;DHT22;11470;20.968;105.834;2023-04-25T23:52:40;22.10;99.90
22607;DHT22;11470;20.968;105.834;2023-04-25T23:57:45;22.20;99.90
